Terminal Aerodrome Forecast
Issued by NWS Northern Indiana

Home | Current Version | Previous Version | Graphics & Text | Print | Product List | Glossary On
Versions: 1 2 3 4 5 6 7 8 9 10 11 12 13 14 15 16 17 18 19
000
FTUS43 KIWX 031700 AAA
TAFFWA
TAF AMD
KFWA 031707Z 0317/0412 16014KT 2SM -FZDZ BR OVC008 WS020/22045KT
     FM031900 21016G24KT 2SM -DZ BR OVC006 WS020/23050KT
     FM040300 28012G18KT P6SM -SHSN OVC012
     FM041000 30010KT P6SM BKN020=

USA.gov is the U.S. government's official web portal to all federal, state and local government web resources and services.